sensor_id;sensor_type;location;lat;lon;timestamp;P1;durP1;ratioP1;P2;durP2;ratioP2
84033;SDS011;74115;55.806;37.754;2023-12-20T00:00:59;1.13;;;0.80;;
84033;SDS011;74115;55.806;37.754;2023-12-20T00:03:25;1.38;;;0.80;;
84033;SDS011;74115;55.806;37.754;2023-12-20T00:05:51;1.33;;;0.77;;
84033;SDS011;74115;55.806;37.754;2023-12-20T00:08:17;1.00;;;0.82;;
84033;SDS011;74115;55.806;37.754;2023-12-20T00:10:43;2.53;;;0.82;;
84033;SDS011;74115;55.806;37.754;2023-12-20T00:13:09;1.95;;;0.90;;
84033;SDS011;74115;55.806;37.754;2023-12-20T00:15:35;2.25;;;0.82;;
84033;SDS011;74115;55.806;37.754;2023-12-20T00:18:01;1.83;;;1.02;;
84033;SDS011;74115;55.806;37.754;2023-12-20T00:20:27;1.52;;;0.68;;
84033;SDS011;74115;55.806;37.754;2023-12-20T00:22:56;2.38;;;1.08;;
84033;SDS011;74115;55.806;37.754;2023-12-20T00:25:25;1.63;;;1.15;;
84033;SDS011;74115;55.806;37.754;2023-12-20T00:27:51;2.03;;;1.25;;
84033;SDS011;74115;55.806;37.754;2023-12-20T00:30:17;1.92;;;0.82;;
84033;SDS011;74115;55.806;37.754;2023-12-20T00:32:43;2.65;;;0.73;;
84033;SDS011;74115;55.806;37.754;2023-12-20T00:35:12;1.42;;;0.80;;
84033;SDS011;74115;55.806;37.754;2023-12-20T00:37:38;2.80;;;1.35;;
84033;SDS011;74115;55.806;37.754;2023-12-20T00:40:04;1.17;;;0.73;;
84033;SDS011;74115;55.806;37.754;2023-12-20T00:42:31;1.42;;;0.63;;
84033;SDS011;74115;55.806;37.754;2023-12-20T00:44:58;1.40;;;0.85;;
84033;SDS011;74115;55.806;37.754;2023-12-20T00:47:24;1.58;;;0.93;;
84033;SDS011;74115;55.806;37.754;2023-12-20T00:49:50;0.75;;;0.63;;
84033;SDS011;74115;55.806;37.754;2023-12-20T00:52:15;1.52;;;0.73;;
84033;SDS011;74115;55.806;37.754;2023-12-20T00:54:42;1.42;;;0.63;;
84033;SDS011;74115;55.806;37.754;2023-12-20T00:57:09;2.35;;;1.38;;
84033;SDS011;74115;55.806;37.754;2023-12-20T00:59:34;2.05;;;1.20;;
84033;SDS011;74115;55.806;37.754;2023-12-20T01:02:00;1.63;;;0.77;;
84033;SDS011;74115;55.806;37.754;2023-12-20T01:04:26;1.63;;;1.17;;
84033;SDS011;74115;55.806;37.754;2023-12-20T01:06:52;1.75;;;0.95;;
84033;SDS011;74115;55.806;37.754;2023-12-20T01:09:18;4.50;;;1.73;;
84033;SDS011;74115;55.806;37.754;2023-12-20T01:11:44;2.30;;;1.00;;
84033;SDS011;74115;55.806;37.754;2023-12-20T01:14:11;1.27;;;0.90;;
84033;SDS011;74115;55.806;37.754;2023-12-20T01:16:37;2.63;;;1.02;;
84033;SDS011;74115;55.806;37.754;2023-12-20T01:19:03;1.92;;;1.10;;
84033;SDS011;74115;55.806;37.754;2023-12-20T01:21:29;2.20;;;1.48;;
84033;SDS011;74115;55.806;37.754;2023-12-20T01:23:55;2.60;;;1.20;;
84033;SDS011;74115;55.806;37.754;2023-12-20T01:26:21;1.80;;;1.33;;
84033;SDS011;74115;55.806;37.754;2023-12-20T01:28:47;1.92;;;1.50;;
84033;SDS011;74115;55.806;37.754;2023-12-20T01:31:13;3.20;;;0.85;;
84033;SDS011;74115;55.806;37.754;2023-12-20T01:33:38;1.85;;;1.42;;
84033;SDS011;74115;55.806;37.754;2023-12-20T01:36:04;2.03;;;1.00;;
84033;SDS011;74115;55.806;37.754;2023-12-20T01:38:30;3.55;;;1.50;;
84033;SDS011;74115;55.806;37.754;2023-12-20T01:40:56;3.40;;;2.45;;
84033;SDS011;74115;55.806;37.754;2023-12-20T01:43:22;2.78;;;1.23;;
84033;SDS011;74115;55.806;37.754;2023-12-20T01:45:47;2.72;;;1.10;;
84033;SDS011;74115;55.806;37.754;2023-12-20T01:48:13;1.38;;;0.80;;
84033;SDS011;74115;55.806;37.754;2023-12-20T01:50:40;2.38;;;1.77;;
84033;SDS011;74115;55.806;37.754;2023-12-20T01:55:34;4.53;;;1.20;;
84033;SDS011;74115;55.806;37.754;2023-12-20T01:58:02;2.58;;;1.35;;
84033;SDS011;74115;55.806;37.754;2023-12-20T02:00:28;1.92;;;1.40;;
84033;SDS011;74115;55.806;37.754;2023-12-20T02:02:54;1.80;;;0.90;;
84033;SDS011;74115;55.806;37.754;2023-12-20T02:05:21;1.05;;;0.73;;
84033;SDS011;74115;55.806;37.754;2023-12-20T02:07:47;1.83;;;1.17;;
84033;SDS011;74115;55.806;37.754;2023-12-20T02:10:13;1.50;;;1.05;;
84033;SDS011;74115;55.806;37.754;2023-12-20T02:12:39;2.33;;;0.75;;
84033;SDS011;74115;55.806;37.754;2023-12-20T02:15:06;2.33;;;0.88;;
84033;SDS011;74115;55.806;37.754;2023-12-20T02:17:32;2.42;;;0.60;;
84033;SDS011;74115;55.806;37.754;2023-12-20T02:19:58;2.53;;;0.90;;
84033;SDS011;74115;55.806;37.754;2023-12-20T02:22:24;1.52;;;1.10;;
84033;SDS011;74115;55.806;37.754;2023-12-20T02:24:49;1.58;;;0.80;;
84033;SDS011;74115;55.806;37.754;2023-12-20T02:27:15;1.20;;;0.90;;
84033;SDS011;74115;55.806;37.754;2023-12-20T02:29:43;1.25;;;0.75;;
84033;SDS011;74115;55.806;37.754;2023-12-20T02:32:09;1.98;;;1.00;;
84033;SDS011;74115;55.806;37.754;2023-12-20T02:34:34;2.17;;;1.20;;
84033;SDS011;74115;55.806;37.754;2023-12-20T02:37:00;2.15;;;0.60;;
84033;SDS011;74115;55.806;37.754;2023-12-20T02:39:26;2.05;;;0.90;;
84033;SDS011;74115;55.806;37.754;2023-12-20T02:41:52;1.92;;;0.75;;
84033;SDS011;74115;55.806;37.754;2023-12-20T02:44:17;1.23;;;0.60;;
84033;SDS011;74115;55.806;37.754;2023-12-20T02:46:43;1.20;;;0.57;;
84033;SDS011;74115;55.806;37.754;2023-12-20T02:49:09;2.13;;;0.98;;
84033;SDS011;74115;55.806;37.754;2023-12-20T02:51:34;5.25;;;0.80;;
84033;SDS011;74115;55.806;37.754;2023-12-20T02:54:03;1.40;;;0.70;;
84033;SDS011;74115;55.806;37.754;2023-12-20T02:56:29;1.05;;;0.60;;
84033;SDS011;74115;55.806;37.754;2023-12-20T02:58:54;2.45;;;0.63;;
84033;SDS011;74115;55.806;37.754;2023-12-20T03:01:20;1.98;;;0.60;;
84033;SDS011;74115;55.806;37.754;2023-12-20T03:03:46;2.85;;;0.70;;
84033;SDS011;74115;55.806;37.754;2023-12-20T03:06:15;1.25;;;0.80;;
84033;SDS011;74115;55.806;37.754;2023-12-20T03:08:42;1.85;;;0.80;;
84033;SDS011;74115;55.806;37.754;2023-12-20T03:11:08;3.20;;;0.68;;
84033;SDS011;74115;55.806;37.754;2023-12-20T03:13:34;2.03;;;0.35;;
84033;SDS011;74115;55.806;37.754;2023-12-20T03:15:59;4.63;;;0.70;;
84033;SDS011;74115;55.806;37.754;2023-12-20T03:18:25;2.47;;;0.82;;
84033;SDS011;74115;55.806;37.754;2023-12-20T03:20:53;1.15;;;0.50;;
84033;SDS011;74115;55.806;37.754;2023-12-20T03:23:18;1.63;;;1.15;;
84033;SDS011;74115;55.806;37.754;2023-12-20T03:25:44;2.08;;;1.25;;
84033;SDS011;74115;55.806;37.754;2023-12-20T03:28:10;1.55;;;1.05;;
84033;SDS011;74115;55.806;37.754;2023-12-20T03:30:36;1.38;;;1.02;;
84033;SDS011;74115;55.806;37.754;2023-12-20T03:33:01;1.65;;;1.20;;
84033;SDS011;74115;55.806;37.754;2023-12-20T03:35:27;4.00;;;1.30;;
84033;SDS011;74115;55.806;37.754;2023-12-20T03:37:53;2.38;;;1.15;;
84033;SDS011;74115;55.806;37.754;2023-12-20T03:40:19;1.08;;;0.82;;
84033;SDS011;74115;55.806;37.754;2023-12-20T03:42:44;2.30;;;0.90;;
84033;SDS011;74115;55.806;37.754;2023-12-20T03:45:10;2.95;;;1.23;;
84033;SDS011;74115;55.806;37.754;2023-12-20T03:47:36;3.60;;;1.25;;
84033;SDS011;74115;55.806;37.754;2023-12-20T03:50:02;2.08;;;1.15;;
84033;SDS011;74115;55.806;37.754;2023-12-20T03:52:29;2.35;;;1.33;;
84033;SDS011;74115;55.806;37.754;2023-12-20T03:54:56;1.63;;;1.00;;
84033;SDS011;74115;55.806;37.754;2023-12-20T03:57:22;1.45;;;0.93;;
84033;SDS011;74115;55.806;37.754;2023-12-20T03:59:48;2.85;;;1.20;;
84033;SDS011;74115;55.806;37.754;2023-12-20T04:02:13;5.03;;;1.40;;
84033;SDS011;74115;55.806;37.754;2023-12-20T04:04:39;1.92;;;1.30;;
84033;SDS011;74115;55.806;37.754;2023-12-20T04:07:05;2.25;;;1.52;;
84033;SDS011;74115;55.806;37.754;2023-12-20T04:09:31;3.88;;;1.42;;
84033;SDS011;74115;55.806;37.754;2023-12-20T04:11:56;2.38;;;1.50;;
84033;SDS011;74115;55.806;37.754;2023-12-20T04:14:22;1.92;;;1.17;;
84033;SDS011;74115;55.806;37.754;2023-12-20T04:16:48;1.95;;;1.33;;
84033;SDS011;74115;55.806;37.754;2023-12-20T04:19:14;2.88;;;1.38;;
84033;SDS011;74115;55.806;37.754;2023-12-20T04:21:39;3.20;;;1.40;;
84033;SDS011;74115;55.806;37.754;2023-12-20T04:24:05;2.15;;;1.40;;
84033;SDS011;74115;55.806;37.754;2023-12-20T04:26:31;6.07;;;2.00;;
84033;SDS011;74115;55.806;37.754;2023-12-20T04:28:57;3.60;;;1.80;;
84033;SDS011;74115;55.806;37.754;2023-12-20T04:31:23;3.42;;;2.08;;
84033;SDS011;74115;55.806;37.754;2023-12-20T04:33:49;5.40;;;2.50;;
84033;SDS011;74115;55.806;37.754;2023-12-20T04:36:14;3.30;;;1.70;;
84033;SDS011;74115;55.806;37.754;2023-12-20T04:38:40;2.97;;;2.13;;
84033;SDS011;74115;55.806;37.754;2023-12-20T04:41:06;4.55;;;2.08;;
84033;SDS011;74115;55.806;37.754;2023-12-20T04:43:32;3.25;;;2.22;;
84033;SDS011;74115;55.806;37.754;2023-12-20T04:45:58;4.68;;;1.73;;
84033;SDS011;74115;55.806;37.754;2023-12-20T04:48:23;3.42;;;2.22;;
84033;SDS011;74115;55.806;37.754;2023-12-20T04:50:49;2.65;;;1.65;;
84033;SDS011;74115;55.806;37.754;2023-12-20T04:53:15;8.13;;;2.08;;
84033;SDS011;74115;55.806;37.754;2023-12-20T04:55:40;3.33;;;1.90;;
84033;SDS011;74115;55.806;37.754;2023-12-20T04:58:06;4.50;;;1.98;;
84033;SDS011;74115;55.806;37.754;2023-12-20T05:00:32;3.88;;;1.77;;
84033;SDS011;74115;55.806;37.754;2023-12-20T05:02:58;2.88;;;1.50;;
84033;SDS011;74115;55.806;37.754;2023-12-20T05:05:23;3.40;;;1.50;;
84033;SDS011;74115;55.806;37.754;2023-12-20T05:07:49;4.20;;;1.27;;
84033;SDS011;74115;55.806;37.754;2023-12-20T05:10:15;2.95;;;1.42;;
84033;SDS011;74115;55.806;37.754;2023-12-20T05:12:41;3.30;;;1.52;;
84033;SDS011;74115;55.806;37.754;2023-12-20T05:15:07;2.60;;;1.10;;
84033;SDS011;74115;55.806;37.754;2023-12-20T05:17:33;3.75;;;1.98;;
84033;SDS011;74115;55.806;37.754;2023-12-20T05:19:58;3.47;;;1.95;;
84033;SDS011;74115;55.806;37.754;2023-12-20T05:22:24;4.22;;;2.03;;
84033;SDS011;74115;55.806;37.754;2023-12-20T05:24:50;1.92;;;1.42;;
84033;SDS011;74115;55.806;37.754;2023-12-20T05:27:16;2.75;;;1.48;;
84033;SDS011;74115;55.806;37.754;2023-12-20T05:29:41;3.15;;;1.55;;
84033;SDS011;74115;55.806;37.754;2023-12-20T05:32:07;2.85;;;1.30;;
84033;SDS011;74115;55.806;37.754;2023-12-20T05:34:33;4.32;;;1.90;;
84033;SDS011;74115;55.806;37.754;2023-12-20T05:36:59;2.25;;;1.10;;
84033;SDS011;74115;55.806;37.754;2023-12-20T05:39:25;3.00;;;1.17;;
84033;SDS011;74115;55.806;37.754;2023-12-20T05:41:51;5.15;;;1.50;;
84033;SDS011;74115;55.806;37.754;2023-12-20T05:44:16;2.88;;;1.55;;
84033;SDS011;74115;55.806;37.754;2023-12-20T05:46:42;3.45;;;2.10;;
84033;SDS011;74115;55.806;37.754;2023-12-20T05:49:09;2.88;;;1.35;;
84033;SDS011;74115;55.806;37.754;2023-12-20T05:51:34;3.00;;;1.10;;
84033;SDS011;74115;55.806;37.754;2023-12-20T05:54:00;2.90;;;1.02;;
84033;SDS011;74115;55.806;37.754;2023-12-20T05:56:26;6.20;;;1.23;;
84033;SDS011;74115;55.806;37.754;2023-12-20T05:58:52;5.72;;;3.03;;
84033;SDS011;74115;55.806;37.754;2023-12-20T06:01:18;3.20;;;2.08;;
84033;SDS011;74115;55.806;37.754;2023-12-20T06:03:44;3.30;;;1.77;;
84033;SDS011;74115;55.806;37.754;2023-12-20T06:06:11;7.90;;;2.40;;
84033;SDS011;74115;55.806;37.754;2023-12-20T06:08:38;5.03;;;1.50;;
84033;SDS011;74115;55.806;37.754;2023-12-20T06:11:04;3.25;;;1.50;;
84033;SDS011;74115;55.806;37.754;2023-12-20T06:13:30;4.72;;;1.77;;
84033;SDS011;74115;55.806;37.754;2023-12-20T06:15:56;3.25;;;2.08;;
84033;SDS011;74115;55.806;37.754;2023-12-20T06:18:25;3.38;;;2.20;;
84033;SDS011;74115;55.806;37.754;2023-12-20T06:20:51;4.32;;;2.10;;
84033;SDS011;74115;55.806;37.754;2023-12-20T06:23:17;5.35;;;2.10;;
84033;SDS011;74115;55.806;37.754;2023-12-20T06:25:42;3.42;;;1.75;;
84033;SDS011;74115;55.806;37.754;2023-12-20T06:28:09;4.30;;;1.50;;
84033;SDS011;74115;55.806;37.754;2023-12-20T06:30:35;2.65;;;1.65;;
84033;SDS011;74115;55.806;37.754;2023-12-20T06:33:01;3.95;;;2.00;;
84033;SDS011;74115;55.806;37.754;2023-12-20T06:35:39;2.97;;;1.67;;
84033;SDS011;74115;55.806;37.754;2023-12-20T06:38:04;2.50;;;1.73;;
84033;SDS011;74115;55.806;37.754;2023-12-20T06:40:30;4.35;;;1.77;;
84033;SDS011;74115;55.806;37.754;2023-12-20T06:42:56;3.75;;;1.52;;
84033;SDS011;74115;55.806;37.754;2023-12-20T06:45:22;5.38;;;1.50;;
84033;SDS011;74115;55.806;37.754;2023-12-20T06:47:47;3.83;;;1.90;;
84033;SDS011;74115;55.806;37.754;2023-12-20T06:50:13;6.15;;;1.90;;
84033;SDS011;74115;55.806;37.754;2023-12-20T06:52:39;3.10;;;1.98;;
84033;SDS011;74115;55.806;37.754;2023-12-20T06:55:05;5.18;;;2.08;;
84033;SDS011;74115;55.806;37.754;2023-12-20T06:57:31;4.05;;;2.13;;
84033;SDS011;74115;55.806;37.754;2023-12-20T06:59:57;2.92;;;1.65;;
84033;SDS011;74115;55.806;37.754;2023-12-20T07:02:23;6.40;;;2.25;;
84033;SDS011;74115;55.806;37.754;2023-12-20T07:04:49;3.90;;;2.20;;
84033;SDS011;74115;55.806;37.754;2023-12-20T07:07:14;5.90;;;1.70;;
84033;SDS011;74115;55.806;37.754;2023-12-20T07:09:40;3.30;;;1.90;;
84033;SDS011;74115;55.806;37.754;2023-12-20T07:12:08;4.00;;;2.47;;
84033;SDS011;74115;55.806;37.754;2023-12-20T07:14:34;2.28;;;1.52;;
84033;SDS011;74115;55.806;37.754;2023-12-20T07:17:00;5.03;;;3.22;;
84033;SDS011;74115;55.806;37.754;2023-12-20T07:19:29;3.80;;;1.77;;
84033;SDS011;74115;55.806;37.754;2023-12-20T07:21:58;4.35;;;1.58;;
84033;SDS011;74115;55.806;37.754;2023-12-20T07:24:24;3.78;;;1.60;;
84033;SDS011;74115;55.806;37.754;2023-12-20T07:26:49;2.00;;;1.50;;
84033;SDS011;74115;55.806;37.754;2023-12-20T07:29:16;1.80;;;1.20;;
84033;SDS011;74115;55.806;37.754;2023-12-20T07:31:42;5.57;;;1.67;;
84033;SDS011;74115;55.806;37.754;2023-12-20T07:34:08;3.92;;;1.50;;
84033;SDS011;74115;55.806;37.754;2023-12-20T07:36:34;4.28;;;1.52;;
84033;SDS011;74115;55.806;37.754;2023-12-20T07:38:59;3.30;;;1.58;;
84033;SDS011;74115;55.806;37.754;2023-12-20T07:41:25;5.88;;;1.60;;
84033;SDS011;74115;55.806;37.754;2023-12-20T07:43:51;3.30;;;1.25;;
84033;SDS011;74115;55.806;37.754;2023-12-20T07:46:20;2.05;;;1.25;;
84033;SDS011;74115;55.806;37.754;2023-12-20T07:48:48;4.28;;;1.50;;
84033;SDS011;74115;55.806;37.754;2023-12-20T07:51:14;2.22;;;1.45;;
84033;SDS011;74115;55.806;37.754;2023-12-20T07:53:40;4.70;;;1.58;;
84033;SDS011;74115;55.806;37.754;2023-12-20T07:56:15;3.53;;;1.85;;
84033;SDS011;74115;55.806;37.754;2023-12-20T07:58:45;3.97;;;1.38;;
84033;SDS011;74115;55.806;37.754;2023-12-20T08:01:11;3.88;;;2.08;;
84033;SDS011;74115;55.806;37.754;2023-12-20T08:03:38;3.63;;;1.77;;
84033;SDS011;74115;55.806;37.754;2023-12-20T08:06:04;4.10;;;1.50;;
84033;SDS011;74115;55.806;37.754;2023-12-20T08:08:29;2.80;;;1.42;;
84033;SDS011;74115;55.806;37.754;2023-12-20T08:10:55;3.97;;;1.70;;
84033;SDS011;74115;55.806;37.754;2023-12-20T08:13:24;6.97;;;1.70;;
84033;SDS011;74115;55.806;37.754;2023-12-20T08:15:51;5.05;;;2.05;;
84033;SDS011;74115;55.806;37.754;2023-12-20T08:18:17;2.15;;;1.27;;
84033;SDS011;74115;55.806;37.754;2023-12-20T08:20:43;5.05;;;1.48;;
84033;SDS011;74115;55.806;37.754;2023-12-20T08:23:09;4.10;;;1.17;;
84033;SDS011;74115;55.806;37.754;2023-12-20T08:25:35;3.78;;;1.38;;
84033;SDS011;74115;55.806;37.754;2023-12-20T08:28:02;2.88;;;1.38;;
84033;SDS011;74115;55.806;37.754;2023-12-20T08:30:28;3.33;;;1.45;;
84033;SDS011;74115;55.806;37.754;2023-12-20T08:32:55;3.55;;;1.20;;
84033;SDS011;74115;55.806;37.754;2023-12-20T08:35:20;2.25;;;1.13;;
84033;SDS011;74115;55.806;37.754;2023-12-20T08:37:46;3.00;;;1.40;;
84033;SDS011;74115;55.806;37.754;2023-12-20T08:40:12;2.08;;;1.17;;
84033;SDS011;74115;55.806;37.754;2023-12-20T08:42:38;3.67;;;1.60;;
84033;SDS011;74115;55.806;37.754;2023-12-20T08:45:04;3.08;;;1.30;;
84033;SDS011;74115;55.806;37.754;2023-12-20T08:47:31;2.70;;;1.52;;
84033;SDS011;74115;55.806;37.754;2023-12-20T08:49:56;3.63;;;1.67;;
84033;SDS011;74115;55.806;37.754;2023-12-20T08:52:25;3.97;;;1.40;;
84033;SDS011;74115;55.806;37.754;2023-12-20T08:54:53;5.35;;;1.67;;
84033;SDS011;74115;55.806;37.754;2023-12-20T08:57:19;4.40;;;1.30;;
84033;SDS011;74115;55.806;37.754;2023-12-20T08:59:49;1.63;;;1.23;;
84033;SDS011;74115;55.806;37.754;2023-12-20T09:02:18;5.20;;;1.90;;
84033;SDS011;74115;55.806;37.754;2023-12-20T09:04:44;2.65;;;1.42;;
84033;SDS011;74115;55.806;37.754;2023-12-20T09:09:48;2.03;;;1.48;;
84033;SDS011;74115;55.806;37.754;2023-12-20T09:12:13;4.53;;;1.50;;
84033;SDS011;74115;55.806;37.754;2023-12-20T09:14:39;3.22;;;1.40;;
84033;SDS011;74115;55.806;37.754;2023-12-20T09:17:06;3.38;;;1.63;;
84033;SDS011;74115;55.806;37.754;2023-12-20T09:19:34;3.03;;;2.08;;
84033;SDS011;74115;55.806;37.754;2023-12-20T09:22:00;5.10;;;1.60;;
84033;SDS011;74115;55.806;37.754;2023-12-20T09:24:26;3.97;;;1.80;;
84033;SDS011;74115;55.806;37.754;2023-12-20T09:26:52;4.95;;;1.75;;
84033;SDS011;74115;55.806;37.754;2023-12-20T09:29:18;3.58;;;2.00;;
84033;SDS011;74115;55.806;37.754;2023-12-20T09:31:44;2.40;;;1.27;;
84033;SDS011;74115;55.806;37.754;2023-12-20T09:34:11;4.93;;;2.38;;
84033;SDS011;74115;55.806;37.754;2023-12-20T09:36:37;4.80;;;1.92;;
84033;SDS011;74115;55.806;37.754;2023-12-20T09:39:05;5.20;;;1.63;;
84033;SDS011;74115;55.806;37.754;2023-12-20T09:41:31;3.35;;;1.38;;
84033;SDS011;74115;55.806;37.754;2023-12-20T09:44:03;7.70;;;2.25;;
84033;SDS011;74115;55.806;37.754;2023-12-20T09:46:29;7.55;;;2.60;;
84033;SDS011;74115;55.806;37.754;2023-12-20T09:48:59;2.78;;;1.90;;
84033;SDS011;74115;55.806;37.754;2023-12-20T09:51:27;8.80;;;1.58;;
84033;SDS011;74115;55.806;37.754;2023-12-20T09:53:54;4.10;;;1.88;;
84033;SDS011;74115;55.806;37.754;2023-12-20T09:56:20;2.38;;;1.90;;
84033;SDS011;74115;55.806;37.754;2023-12-20T09:58:46;4.38;;;2.78;;
84033;SDS011;74115;55.806;37.754;2023-12-20T10:01:12;3.90;;;1.90;;
84033;SDS011;74115;55.806;37.754;2023-12-20T10:03:39;3.28;;;1.63;;
84033;SDS011;74115;55.806;37.754;2023-12-20T10:06:06;3.80;;;2.53;;
84033;SDS011;74115;55.806;37.754;2023-12-20T10:08:32;3.95;;;1.73;;
84033;SDS011;74115;55.806;37.754;2023-12-20T10:10:58;3.28;;;2.13;;
84033;SDS011;74115;55.806;37.754;2023-12-20T10:13:27;2.20;;;1.70;;
84033;SDS011;74115;55.806;37.754;2023-12-20T10:15:54;6.10;;;1.67;;
84033;SDS011;74115;55.806;37.754;2023-12-20T10:18:20;3.80;;;2.00;;
84033;SDS011;74115;55.806;37.754;2023-12-20T10:20:49;3.13;;;2.45;;
84033;SDS011;74115;55.806;37.754;2023-12-20T10:23:15;2.60;;;1.75;;
84033;SDS011;74115;55.806;37.754;2023-12-20T10:25:41;2.92;;;1.70;;
84033;SDS011;74115;55.806;37.754;2023-12-20T10:30:40;2.03;;;1.20;;
84033;SDS011;74115;55.806;37.754;2023-12-20T10:33:06;2.65;;;1.50;;
84033;SDS011;74115;55.806;37.754;2023-12-20T10:35:35;2.85;;;1.30;;
84033;SDS011;74115;55.806;37.754;2023-12-20T10:38:06;3.22;;;2.28;;
84033;SDS011;74115;55.806;37.754;2023-12-20T10:40:35;4.22;;;1.63;;
84033;SDS011;74115;55.806;37.754;2023-12-20T10:43:02;2.70;;;1.50;;
84033;SDS011;74115;55.806;37.754;2023-12-20T10:45:29;2.70;;;1.30;;
84033;SDS011;74115;55.806;37.754;2023-12-20T10:47:55;3.88;;;1.45;;
84033;SDS011;74115;55.806;37.754;2023-12-20T10:50:21;3.58;;;1.60;;
84033;SDS011;74115;55.806;37.754;2023-12-20T10:52:47;3.97;;;1.58;;
84033;SDS011;74115;55.806;37.754;2023-12-20T10:55:13;4.13;;;1.85;;
84033;SDS011;74115;55.806;37.754;2023-12-20T10:57:39;2.50;;;1.40;;
84033;SDS011;74115;55.806;37.754;2023-12-20T11:00:06;2.10;;;1.42;;
84033;SDS011;74115;55.806;37.754;2023-12-20T11:02:36;2.22;;;1.75;;
84033;SDS011;74115;55.806;37.754;2023-12-20T11:07:43;3.22;;;1.58;;
84033;SDS011;74115;55.806;37.754;2023-12-20T11:10:21;2.40;;;1.38;;
84033;SDS011;74115;55.806;37.754;2023-12-20T11:12:53;2.38;;;1.35;;
84033;SDS011;74115;55.806;37.754;2023-12-20T11:15:23;3.70;;;1.33;;
84033;SDS011;74115;55.806;37.754;2023-12-20T11:17:56;2.92;;;1.70;;
84033;SDS011;74115;55.806;37.754;2023-12-20T11:20:43;3.78;;;1.23;;
84033;SDS011;74115;55.806;37.754;2023-12-20T11:23:09;1.92;;;1.42;;
84033;SDS011;74115;55.806;37.754;2023-12-20T11:28:14;2.28;;;1.33;;
84033;SDS011;74115;55.806;37.754;2023-12-20T11:30:40;2.63;;;1.60;;
84033;SDS011;74115;55.806;37.754;2023-12-20T11:33:07;2.40;;;1.35;;
84033;SDS011;74115;55.806;37.754;2023-12-20T11:35:34;2.72;;;1.45;;
84033;SDS011;74115;55.806;37.754;2023-12-20T11:38:01;2.92;;;1.23;;
84033;SDS011;74115;55.806;37.754;2023-12-20T11:40:27;5.63;;;1.17;;
84033;SDS011;74115;55.806;37.754;2023-12-20T11:42:53;3.22;;;1.42;;
84033;SDS011;74115;55.806;37.754;2023-12-20T11:45:20;1.45;;;0.82;;
84033;SDS011;74115;55.806;37.754;2023-12-20T11:50:15;2.88;;;1.65;;
84033;SDS011;74115;55.806;37.754;2023-12-20T11:52:44;2.10;;;1.13;;
84033;SDS011;74115;55.806;37.754;2023-12-20T11:55:09;4.88;;;1.10;;
84033;SDS011;74115;55.806;37.754;2023-12-20T11:57:36;4.07;;;1.27;;
84033;SDS011;74115;55.806;37.754;2023-12-20T12:00:05;1.70;;;1.20;;
84033;SDS011;74115;55.806;37.754;2023-12-20T12:02:32;3.42;;;0.93;;
84033;SDS011;74115;55.806;37.754;2023-12-20T12:05:00;1.70;;;1.08;;
84033;SDS011;74115;55.806;37.754;2023-12-20T12:07:26;1.88;;;1.08;;
84033;SDS011;74115;55.806;37.754;2023-12-20T12:09:52;1.75;;;0.95;;
84033;SDS011;74115;55.806;37.754;2023-12-20T12:12:18;3.78;;;1.70;;
84033;SDS011;74115;55.806;37.754;2023-12-20T12:14:45;2.17;;;1.27;;
84033;SDS011;74115;55.806;37.754;2023-12-20T12:17:11;2.00;;;1.00;;
84033;SDS011;74115;55.806;37.754;2023-12-20T12:23:00;3.20;;;1.13;;
84033;SDS011;74115;55.806;37.754;2023-12-20T12:25:30;2.13;;;1.40;;
84033;SDS011;74115;55.806;37.754;2023-12-20T12:27:57;2.25;;;1.33;;
84033;SDS011;74115;55.806;37.754;2023-12-20T12:30:24;2.45;;;1.15;;
84033;SDS011;74115;55.806;37.754;2023-12-20T12:32:53;1.95;;;1.15;;
84033;SDS011;74115;55.806;37.754;2023-12-20T12:35:19;3.15;;;1.17;;
84033;SDS011;74115;55.806;37.754;2023-12-20T12:37:48;3.47;;;1.52;;
84033;SDS011;74115;55.806;37.754;2023-12-20T12:40:14;3.22;;;1.77;;
84033;SDS011;74115;55.806;37.754;2023-12-20T12:42:41;3.78;;;1.10;;
84033;SDS011;74115;55.806;37.754;2023-12-20T12:45:09;2.00;;;1.38;;
84033;SDS011;74115;55.806;37.754;2023-12-20T12:47:36;3.55;;;1.00;;
84033;SDS011;74115;55.806;37.754;2023-12-20T12:50:03;2.47;;;1.35;;
84033;SDS011;74115;55.806;37.754;2023-12-20T12:52:31;3.00;;;1.30;;
84033;SDS011;74115;55.806;37.754;2023-12-20T12:54:57;2.92;;;1.25;;
84033;SDS011;74115;55.806;37.754;2023-12-20T12:57:23;2.25;;;1.20;;
84033;SDS011;74115;55.806;37.754;2023-12-20T12:59:49;2.72;;;1.48;;
84033;SDS011;74115;55.806;37.754;2023-12-20T13:02:15;2.53;;;1.52;;
84033;SDS011;74115;55.806;37.754;2023-12-20T13:04:41;4.45;;;1.55;;
84033;SDS011;74115;55.806;37.754;2023-12-20T13:07:08;1.90;;;1.00;;
84033;SDS011;74115;55.806;37.754;2023-12-20T13:09:38;2.58;;;1.67;;
84033;SDS011;74115;55.806;37.754;2023-12-20T13:12:04;4.68;;;1.60;;
84033;SDS011;74115;55.806;37.754;2023-12-20T13:14:33;4.68;;;2.47;;
84033;SDS011;74115;55.806;37.754;2023-12-20T13:17:03;2.35;;;1.70;;
84033;SDS011;74115;55.806;37.754;2023-12-20T13:19:30;4.88;;;1.70;;
84033;SDS011;74115;55.806;37.754;2023-12-20T13:21:56;2.92;;;1.58;;
84033;SDS011;74115;55.806;37.754;2023-12-20T13:24:23;4.18;;;2.03;;
84033;SDS011;74115;55.806;37.754;2023-12-20T13:26:49;3.10;;;2.20;;
84033;SDS011;74115;55.806;37.754;2023-12-20T13:29:15;3.42;;;1.75;;
84033;SDS011;74115;55.806;37.754;2023-12-20T13:31:42;4.75;;;1.65;;
84033;SDS011;74115;55.806;37.754;2023-12-20T13:34:07;2.40;;;1.35;;
84033;SDS011;74115;55.806;37.754;2023-12-20T13:36:33;3.13;;;1.70;;
84033;SDS011;74115;55.806;37.754;2023-12-20T13:38:59;6.60;;;1.88;;
84033;SDS011;74115;55.806;37.754;2023-12-20T13:41:25;7.82;;;2.10;;
84033;SDS011;74115;55.806;37.754;2023-12-20T13:43:50;2.90;;;1.70;;
84033;SDS011;74115;55.806;37.754;2023-12-20T13:46:16;6.30;;;1.98;;
84033;SDS011;74115;55.806;37.754;2023-12-20T13:48:42;3.25;;;1.63;;
84033;SDS011;74115;55.806;37.754;2023-12-20T13:51:08;3.78;;;1.40;;
84033;SDS011;74115;55.806;37.754;2023-12-20T13:53:34;2.20;;;1.30;;
84033;SDS011;74115;55.806;37.754;2023-12-20T13:56:00;2.65;;;1.85;;
84033;SDS011;74115;55.806;37.754;2023-12-20T13:58:26;3.63;;;1.80;;
84033;SDS011;74115;55.806;37.754;2023-12-20T14:00:52;3.33;;;1.88;;
84033;SDS011;74115;55.806;37.754;2023-12-20T14:03:18;3.60;;;2.08;;
84033;SDS011;74115;55.806;37.754;2023-12-20T14:05:45;3.63;;;1.95;;
84033;SDS011;74115;55.806;37.754;2023-12-20T14:08:11;4.13;;;2.03;;
84033;SDS011;74115;55.806;37.754;2023-12-20T14:10:37;4.65;;;2.00;;
84033;SDS011;74115;55.806;37.754;2023-12-20T14:13:06;3.70;;;1.95;;
84033;SDS011;74115;55.806;37.754;2023-12-20T14:15:35;2.75;;;1.63;;
84033;SDS011;74115;55.806;37.754;2023-12-20T14:18:06;4.18;;;2.17;;
84033;SDS011;74115;55.806;37.754;2023-12-20T14:20:33;6.28;;;2.17;;
84033;SDS011;74115;55.806;37.754;2023-12-20T14:23:03;2.78;;;1.63;;
84033;SDS011;74115;55.806;37.754;2023-12-20T14:25:29;5.65;;;1.92;;
84033;SDS011;74115;55.806;37.754;2023-12-20T14:27:56;3.17;;;1.48;;
84033;SDS011;74115;55.806;37.754;2023-12-20T14:30:22;2.95;;;1.38;;
84033;SDS011;74115;55.806;37.754;2023-12-20T14:32:48;2.55;;;1.35;;
84033;SDS011;74115;55.806;37.754;2023-12-20T14:35:14;7.68;;;1.52;;
84033;SDS011;74115;55.806;37.754;2023-12-20T14:37:40;4.00;;;1.65;;
84033;SDS011;74115;55.806;37.754;2023-12-20T14:40:06;5.72;;;1.50;;
84033;SDS011;74115;55.806;37.754;2023-12-20T14:42:36;2.55;;;1.50;;
84033;SDS011;74115;55.806;37.754;2023-12-20T14:45:02;2.22;;;1.48;;
84033;SDS011;74115;55.806;37.754;2023-12-20T14:47:29;2.40;;;1.02;;